Time;durP1;ratioP1;P1;durP2;ratioP2;P2;SDS_P1;SDS_P2;PMS_P1;PMS_P2;Temp;Humidity;BMP_temperature;BMP_pressure;BME280_temperature;BME280_humidity;BME280_pressure;Samples;Min_cycle;Max_cycle;Signal;HPM_P1;HPM_P2
2023/01/08 00:00:05;;;;;;;5.00;4.50;;;8.50;99.90;;;;;;6213941;23;20346;-86
2023/01/08 00:02:30;;;;;;;5.43;4.65;;;8.50;99.90;;;;;;6217314;23;20350;-86
2023/01/08 00:04:56;;;;;;;4.97;4.47;;;8.40;99.90;;;;;;6217140;23;20494;-86
2023/01/08 00:07:22;;;;;;;4.50;4.10;;;8.50;99.90;;;;;;6213629;23;20428;-88
2023/01/08 00:09:49;;;;;;;4.75;4.35;;;8.40;99.90;;;;;;6214407;23;20342;-88
2023/01/08 00:12:15;;;;;;;5.20;4.53;;;8.30;99.90;;;;;;6214432;23;20365;-86
2023/01/08 00:14:41;;;;;;;5.07;4.57;;;8.40;99.90;;;;;;6216464;23;20350;-86
2023/01/08 00:17:07;;;;;;;5.17;4.67;;;8.30;99.90;;;;;;6216467;23;20356;-86
2023/01/08 00:19:33;;;;;;;4.90;4.50;;;8.30;99.90;;;;;;6215736;23;20354;-86
2023/01/08 00:21:58;;;;;;;5.17;4.67;;;8.30;99.90;;;;;;6216720;23;20350;-87
2023/01/08 00:24:24;;;;;;;5.13;4.17;;;8.30;99.90;;;;;;6214419;23;20467;-87
2023/01/08 00:26:50;;;;;;;5.00;4.50;;;8.30;99.90;;;;;;6215330;23;20805;-86
2023/01/08 00:29:15;;;;;;;5.18;4.68;;;8.20;99.90;;;;;;6217122;23;20357;-86
2023/01/08 00:31:41;;;;;;;4.97;4.43;;;8.20;99.90;;;;;;6215663;23;20674;-87
2023/01/08 00:34:07;;;;;;;5.20;4.70;;;8.10;99.90;;;;;;6217687;23;20353;-86
2023/01/08 00:36:33;;;;;;;5.00;4.50;;;8.10;99.90;;;;;;6217515;23;20362;-87
2023/01/08 00:38:59;;;;;;;5.40;4.70;;;8.00;99.90;;;;;;6213899;23;20362;-87
2023/01/08 00:41:25;;;;;;;5.03;4.60;;;8.00;99.90;;;;;;6216200;23;20435;-88
2023/01/08 00:43:51;;;;;;;5.17;4.67;;;7.90;99.90;;;;;;6217520;23;20355;-85
2023/01/08 00:46:16;;;;;;;5.50;4.78;;;7.90;99.90;;;;;;6215409;23;20356;-87
2023/01/08 00:48:42;;;;;;;5.20;4.70;;;7.80;99.90;;;;;;6219882;23;20390;-87
2023/01/08 00:51:08;;;;;;;5.10;4.60;;;7.80;99.90;;;;;;6218950;23;20354;-87
2023/01/08 00:53:35;;;;;;;5.32;4.82;;;7.90;99.90;;;;;;6222611;23;20362;-87
2023/01/08 00:56:06;;;;;;;4.97;4.50;;;7.90;99.90;;;;;;6222523;23;20351;-87
2023/01/08 00:58:32;;;;;;;5.70;5.20;;;7.70;99.90;;;;;;6233759;23;20357;-86
2023/01/08 01:00:58;;;;;;;5.28;4.78;;;7.80;99.90;;;;;;6233489;23;20393;-85
2023/01/08 01:03:24;;;;;;;5.57;4.97;;;7.80;99.90;;;;;;6217629;23;20797;-87
2023/01/08 01:05:58;;;;;;;6.20;5.03;;;7.70;99.90;;;;;;6213774;23;20378;-87
2023/01/08 01:08:24;;;;;;;6.28;5.22;;;7.80;99.90;;;;;;6212180;23;20381;-87
2023/01/08 01:10:50;;;;;;;5.80;5.20;;;7.80;99.90;;;;;;6212109;23;20346;-87
2023/01/08 01:13:16;;;;;;;5.70;5.20;;;7.90;99.90;;;;;;6213670;23;20350;-86
2023/01/08 01:15:41;;;;;;;5.45;4.88;;;7.70;99.90;;;;;;6213019;23;20354;-87
2023/01/08 01:18:07;;;;;;;5.43;4.93;;;7.70;99.90;;;;;;6212295;23;20357;-87
2023/01/08 01:20:33;;;;;;;5.60;5.00;;;7.70;99.90;;;;;;6212674;23;20804;-86
2023/01/08 01:22:59;;;;;;;5.67;5.17;;;7.60;99.90;;;;;;6214541;23;20345;-86
2023/01/08 01:25:25;;;;;;;5.60;5.10;;;7.60;99.90;;;;;;6217499;23;20376;-86
2023/01/08 01:27:50;;;;;;;6.47;5.43;;;7.60;99.90;;;;;;6216141;23;20421;-86
2023/01/08 01:30:16;;;;;;;5.78;5.07;;;7.60;99.90;;;;;;6212577;23;20361;-86
2023/01/08 01:32:42;;;;;;;5.67;5.17;;;7.60;99.90;;;;;;6211119;23;20354;-86
2023/01/08 01:35:08;;;;;;;6.37;5.73;;;7.50;99.90;;;;;;6211809;23;20342;-86
2023/01/08 01:37:33;;;;;;;6.45;5.50;;;7.50;99.90;;;;;;6210867;23;20813;-86
2023/01/08 01:39:59;;;;;;;5.75;5.25;;;7.40;99.90;;;;;;6212456;23;20444;-85
2023/01/08 01:42:40;;;;;;;6.15;5.55;;;7.40;99.90;;;;;;6212514;23;20365;-87
2023/01/08 01:45:21;;;;;;;6.10;5.53;;;7.40;99.90;;;;;;6213369;23;20346;-86
2023/01/08 01:48:11;;;;;;;7.18;6.00;;;7.30;99.90;;;;;;6213273;23;20369;-86
2023/01/08 01:50:44;;;;;;;6.40;5.80;;;7.20;99.90;;;;;;6201841;23;20346;-86
2023/01/08 01:53:29;;;;;;;6.70;6.00;;;7.20;99.90;;;;;;6216784;23;20369;-85
2023/01/08 01:55:56;;;;;;;6.30;5.70;;;7.00;99.90;;;;;;6213442;23;20358;-86
2023/01/08 01:58:26;;;;;;;6.32;5.70;;;7.10;99.90;;;;;;6210990;23;20346;-86
2023/01/08 02:00:54;;;;;;;6.57;5.97;;;7.00;99.90;;;;;;6213522;23;20410;-86
2023/01/08 02:03:22;;;;;;;7.18;6.30;;;7.00;99.90;;;;;;6214504;23;20358;-86
2023/01/08 02:06:19;;;;;;;6.93;6.22;;;6.80;99.90;;;;;;6216410;23;20373;-86
2023/01/08 02:08:57;;;;;;;7.38;6.57;;;6.80;99.90;;;;;;6215293;23;20353;-87
2023/01/08 02:11:35;;;;;;;8.27;6.97;;;6.70;99.90;;;;;;6216280;23;20391;-86
2023/01/08 02:14:18;;;;;;;7.22;6.53;;;6.70;99.90;;;;;;6214538;23;20357;-86
2023/01/08 02:17:00;;;;;;;7.53;6.72;;;6.70;99.90;;;;;;6215163;23;20358;-86
2023/01/08 02:19:44;;;;;;;7.72;7.03;;;6.60;99.90;;;;;;6214108;23;20401;-86
2023/01/08 02:22:10;;;;;;;7.28;6.57;;;6.50;99.90;;;;;;6216569;23;20350;-86
2023/01/08 02:24:57;;;;;;;7.82;6.95;;;6.60;99.90;;;;;;6214168;23;20411;-86
2023/01/08 02:27:26;;;;;;;7.40;6.70;;;6.60;99.90;;;;;;6217166;23;20374;-87
2023/01/08 02:29:54;;;;;;;7.70;7.00;;;6.50;99.90;;;;;;6216836;23;20356;-86
2023/01/08 02:32:31;;;;;;;7.70;6.93;;;6.50;99.90;;;;;;6215795;23;20631;-86
2023/01/08 02:34:57;;;;;;;8.80;6.78;;;6.50;99.90;;;;;;6216707;23;20350;-85
2023/01/08 02:37:23;;;;;;;7.33;6.70;;;6.50;99.90;;;;;;6213734;23;20412;-86
2023/01/08 02:40:17;;;;;;;7.67;6.97;;;6.50;99.90;;;;;;6214921;23;20349;-86
2023/01/08 02:42:46;;;;;;;7.80;7.10;;;6.40;99.90;;;;;;6214807;23;20369;-86
2023/01/08 02:45:46;;;;;;;8.00;7.20;;;6.40;99.90;;;;;;6213754;23;20350;-87
2023/01/08 02:48:20;;;;;;;8.20;7.40;;;6.30;99.90;;;;;;6217073;23;20377;-86
2023/01/08 02:51:13;;;;;;;7.43;6.73;;;6.30;99.90;;;;;;6218197;23;20371;-86
2023/01/08 02:53:46;;;;;;;7.95;7.22;;;6.40;99.90;;;;;;6212560;23;20488;-85
2023/01/08 02:56:17;;;;;;;8.20;7.03;;;6.40;99.90;;;;;;6216403;23;20338;-87
2023/01/08 02:58:46;;;;;;;7.80;7.10;;;6.40;99.90;;;;;;6212643;23;20354;-87
2023/01/08 03:01:15;;;;;;;8.13;7.32;;;6.50;99.90;;;;;;6213437;23;20566;-87
2023/01/08 03:03:43;;;;;;;8.30;7.38;;;6.40;99.90;;;;;;6213782;23;20350;-86
2023/01/08 03:06:14;;;;;;;8.30;7.50;;;6.30;99.90;;;;;;6186907;22;20382;-87
2023/01/08 03:08:42;;;;;;;8.63;7.72;;;6.30;99.90;;;;;;6197023;23;21010;-88
2023/01/08 03:11:20;;;;;;;8.27;7.47;;;6.20;99.90;;;;;;6197848;23;20376;-87
2023/01/08 03:14:09;;;;;;;8.75;7.95;;;6.20;99.90;;;;;;6198700;23;20362;-87
2023/01/08 03:16:42;;;;;;;8.05;7.28;;;6.20;99.90;;;;;;6198998;23;20369;-87
2023/01/08 03:19:22;;;;;;;8.25;7.45;;;6.30;99.90;;;;;;6199947;23;20393;-87
2023/01/08 03:21:50;;;;;;;8.07;7.37;;;6.30;99.90;;;;;;6199626;23;20437;-88
2023/01/08 03:24:23;;;;;;;8.63;7.82;;;6.30;99.90;;;;;;6198974;23;20358;-88
2023/01/08 03:26:51;;;;;;;8.88;8.00;;;6.30;99.90;;;;;;6200234;23;20374;-88
2023/01/08 03:29:23;;;;;;;8.02;7.32;;;6.30;99.90;;;;;;6202235;23;20453;-88
2023/01/08 03:31:51;;;;;;;8.75;7.95;;;6.20;99.90;;;;;;6219234;23;20445;-87
2023/01/08 03:34:20;;;;;;;8.70;7.90;;;6.10;99.90;;;;;;6237223;23;20382;-87
2023/01/08 03:36:50;;;;;;;9.20;8.30;;;6.20;99.90;;;;;;6226134;23;20362;-87
2023/01/08 03:39:23;;;;;;;9.63;8.73;;;6.00;99.90;;;;;;6213657;23;20359;-87
2023/01/08 03:41:50;;;;;;;9.40;8.50;;;6.00;99.90;;;;;;6212463;23;20346;-87
2023/01/08 03:44:16;;;;;;;9.70;8.70;;;6.00;99.90;;;;;;6212157;23;20354;-87
2023/01/08 03:46:46;;;;;;;10.30;9.20;;;6.00;99.90;;;;;;6210864;23;20524;-87
2023/01/08 03:49:14;;;;;;;10.18;9.18;;;6.00;99.90;;;;;;6212551;23;20393;-88
2023/01/08 03:51:46;;;;;;;9.93;8.93;;;5.90;99.90;;;;;;6213299;23;20396;-87
2023/01/08 03:54:20;;;;;;;10.00;9.00;;;5.90;99.90;;;;;;6212802;23;20377;-87
2023/01/08 03:56:46;;;;;;;10.20;9.20;;;5.80;99.90;;;;;;6212841;23;20417;-87
2023/01/08 03:59:12;;;;;;;10.20;9.18;;;5.90;99.90;;;;;;6213246;23;20847;-87
2023/01/08 04:01:38;;;;;;;10.40;9.40;;;5.90;99.90;;;;;;6212065;23;20411;-88
2023/01/08 04:04:05;;;;;;;11.03;9.97;;;5.80;99.90;;;;;;6213810;23;20361;-87
2023/01/08 04:06:32;;;;;;;10.43;9.45;;;5.80;99.90;;;;;;6210712;23;20516;-88
2023/01/08 04:08:58;;;;;;;11.02;10.02;;;5.80;99.90;;;;;;6211869;23;20369;-87
2023/01/08 04:11:24;;;;;;;10.68;9.68;;;5.90;99.90;;;;;;6210917;23;20358;-87
2023/01/08 04:13:49;;;;;;;10.10;9.10;;;5.90;99.90;;;;;;6212722;23;20362;-87
2023/01/08 04:16:15;;;;;;;10.15;9.23;;;6.00;99.90;;;;;;6211162;23;20876;-87
2023/01/08 04:18:41;;;;;;;10.30;9.30;;;6.10;99.90;;;;;;6211468;23;20350;-88
2023/01/08 04:21:06;;;;;;;9.98;9.07;;;6.30;99.90;;;;;;6212434;23;20382;-88
2023/01/08 04:23:32;;;;;;;9.77;8.87;;;6.50;99.90;;;;;;6213809;23;20342;-87
2023/01/08 04:25:58;;;;;;;10.00;9.10;;;6.40;99.90;;;;;;6210967;23;20356;-88
2023/01/08 04:28:24;;;;;;;10.77;9.67;;;6.40;99.90;;;;;;6213223;23;20779;-88
2023/01/08 04:30:50;;;;;;;10.10;9.10;;;6.40;99.90;;;;;;6211390;23;20374;-87
2023/01/08 04:33:16;;;;;;;9.00;8.20;;;6.50;99.90;;;;;;6211221;23;20677;-88
2023/01/08 04:35:42;;;;;;;9.27;8.48;;;6.40;99.90;;;;;;6212367;23;20350;-88
2023/01/08 04:38:07;;;;;;;9.50;8.60;;;6.40;99.90;;;;;;6210121;23;20354;-89
2023/01/08 04:40:33;;;;;;;10.27;9.38;;;6.30;99.90;;;;;;6210150;23;20369;-88
2023/01/08 04:42:59;;;;;;;10.15;9.15;;;6.20;99.90;;;;;;6211259;23;21189;-87
2023/01/08 04:45:25;;;;;;;9.68;8.68;;;6.10;99.90;;;;;;6211429;23;20354;-88
2023/01/08 04:47:58;;;;;;;9.48;8.57;;;6.10;99.90;;;;;;6210911;23;20370;-88
2023/01/08 04:50:25;;;;;;;10.68;9.57;;;6.00;99.90;;;;;;6210575;23;20351;-87
2023/01/08 04:52:50;;;;;;;11.25;10.07;;;5.90;99.90;;;;;;6212424;23;20334;-88
2023/01/08 04:55:16;;;;;;;10.70;9.60;;;5.90;99.90;;;;;;6212538;23;20361;-87
2023/01/08 04:57:42;;;;;;;10.80;9.80;;;5.80;99.90;;;;;;6210842;23;20409;-88
2023/01/08 05:00:09;;;;;;;10.73;9.63;;;5.80;99.90;;;;;;6212402;23;20412;-88
2023/01/08 05:02:35;;;;;;;10.88;9.88;;;5.80;99.90;;;;;;6211377;23;20730;-88
2023/01/08 05:05:01;;;;;;;11.95;10.75;;;5.70;99.90;;;;;;6211347;23;20654;-88
2023/01/08 05:07:27;;;;;;;11.57;10.47;;;5.70;99.90;;;;;;6211232;23;20524;-88
2023/01/08 05:09:52;;;;;;;12.70;11.40;;;5.70;99.90;;;;;;6212739;23;20354;-88
2023/01/08 05:12:18;;;;;;;11.10;9.90;;;5.80;99.90;;;;;;6212527;23;20748;-88
2023/01/08 05:14:44;;;;;;;11.18;10.07;;;5.80;99.90;;;;;;6210825;23;20378;-90
2023/01/08 05:17:10;;;;;;;11.00;10.00;;;5.80;99.90;;;;;;6212476;23;20353;-87
2023/01/08 05:19:35;;;;;;;10.02;9.13;;;5.80;99.90;;;;;;6214117;23;20345;-87
2023/01/08 05:22:01;;;;;;;9.85;8.85;;;5.90;99.90;;;;;;6211500;23;20354;-87
2023/01/08 05:24:27;;;;;;;9.87;8.97;;;6.00;99.90;;;;;;6211479;23;21049;-88
2023/01/08 05:26:52;;;;;;;10.43;9.37;;;6.00;99.90;;;;;;6211652;23;20370;-88
2023/01/08 05:29:18;;;;;;;10.52;9.52;;;6.10;99.90;;;;;;6212092;23;20350;-89
2023/01/08 05:31:44;;;;;;;10.18;9.18;;;6.10;99.90;;;;;;6212617;23;20366;-88
2023/01/08 05:34:10;;;;;;;9.73;8.73;;;6.20;99.90;;;;;;6213019;23;20356;-89
2023/01/08 05:36:36;;;;;;;9.20;8.38;;;6.30;99.90;;;;;;6212940;23;20358;-87
2023/01/08 05:39:02;;;;;;;8.90;8.10;;;6.40;99.90;;;;;;6214771;23;20350;-88
2023/01/08 05:41:28;;;;;;;9.00;8.10;;;6.40;99.90;;;;;;6214005;23;20369;-86
2023/01/08 05:43:54;;;;;;;9.20;8.30;;;6.40;99.90;;;;;;6214451;23;20326;-88
2023/01/08 05:46:20;;;;;;;9.03;8.17;;;6.60;99.90;;;;;;6211732;23;20428;-88
2023/01/08 05:48:46;;;;;;;8.50;7.70;;;6.60;99.90;;;;;;6212067;23;20343;-88
2023/01/08 05:51:11;;;;;;;8.70;7.80;;;6.80;99.90;;;;;;6212195;23;20420;-88
2023/01/08 05:53:37;;;;;;;8.52;7.72;;;6.90;99.90;;;;;;6215324;23;20346;-88
2023/01/08 05:56:06;;;;;;;8.63;7.80;;;7.00;99.90;;;;;;6212623;23;20484;-88
2023/01/08 05:58:32;;;;;;;8.80;7.73;;;7.00;99.90;;;;;;6214120;23;20354;-89
2023/01/08 06:01:24;;;;;;;8.88;8.07;;;7.10;99.90;;;;;;6214242;23;20404;-88
2023/01/08 06:03:53;;;;;;;8.82;7.93;;;7.20;99.90;;;;;;6207868;23;20361;-88
2023/01/08 06:06:19;;;;;;;8.82;7.93;;;7.20;99.90;;;;;;6212496;23;20412;-87
2023/01/08 06:08:44;;;;;;;9.27;7.78;;;7.30;99.90;;;;;;6213999;23;20358;-87
2023/01/08 06:11:11;;;;;;;8.50;7.60;;;7.40;99.90;;;;;;6215699;23;20360;-88
2023/01/08 06:13:41;;;;;;;8.27;7.47;;;7.40;99.90;;;;;;6212764;23;20354;-88
2023/01/08 06:16:07;;;;;;;8.10;7.30;;;7.40;99.90;;;;;;6214616;23;20429;-88
2023/01/08 06:18:33;;;;;;;8.37;7.20;;;7.60;99.90;;;;;;6210883;23;20350;-89
2023/01/08 06:20:58;;;;;;;7.80;7.10;;;7.50;99.90;;;;;;6214936;23;20450;-89
2023/01/08 06:23:25;;;;;;;6.95;6.25;;;7.50;99.90;;;;;;6211035;23;20396;-87
2023/01/08 06:25:53;;;;;;;7.53;6.82;;;7.60;99.90;;;;;;6211851;23;20357;-88
2023/01/08 06:28:18;;;;;;;7.40;6.70;;;7.70;99.90;;;;;;6210459;23;20428;-89
2023/01/08 06:30:44;;;;;;;7.78;7.07;;;7.70;99.90;;;;;;6210456;23;20833;-88
2023/01/08 06:33:10;;;;;;;8.50;6.90;;;7.80;99.90;;;;;;6212941;23;20346;-88
2023/01/08 06:35:35;;;;;;;7.57;6.77;;;7.80;99.90;;;;;;6208721;23;20372;-88
2023/01/08 06:38:01;;;;;;;7.65;6.95;;;7.80;99.90;;;;;;6212898;23;20374;-88
2023/01/08 06:40:27;;;;;;;7.38;6.60;;;7.80;99.90;;;;;;6211097;23;20342;-89
2023/01/08 06:42:52;;;;;;;7.50;6.80;;;7.70;99.90;;;;;;6212284;23;20353;-88
2023/01/08 06:45:18;;;;;;;8.63;7.23;;;7.80;99.90;;;;;;6212327;23;20378;-88
2023/01/08 06:47:44;;;;;;;7.45;6.75;;;7.80;99.90;;;;;;6211006;23;20385;-89
2023/01/08 06:50:10;;;;;;;7.90;7.10;;;7.80;99.90;;;;;;6212313;23;20378;-86
2023/01/08 06:52:36;;;;;;;7.82;7.03;;;7.80;99.90;;;;;;6214156;23;20354;-87
2023/01/08 06:55:03;;;;;;;7.45;6.80;;;7.90;99.90;;;;;;6214818;23;20353;-86
2023/01/08 06:57:31;;;;;;;8.18;7.15;;;7.90;99.90;;;;;;6212818;23;20350;-88
2023/01/08 06:59:57;;;;;;;7.57;6.88;;;8.00;99.90;;;;;;6218354;23;20435;-87
2023/01/08 07:02:22;;;;;;;8.23;7.43;;;7.90;99.90;;;;;;6215549;23;20442;-87
2023/01/08 07:04:48;;;;;;;7.20;6.50;;;7.90;99.90;;;;;;6215077;23;20684;-87
2023/01/08 07:07:14;;;;;;;8.13;7.33;;;7.90;99.90;;;;;;6211907;23;20401;-87
2023/01/08 07:09:43;;;;;;;8.10;7.30;;;7.80;99.90;;;;;;6212680;23;20352;-90
2023/01/08 07:12:13;;;;;;;8.20;7.40;;;7.90;99.90;;;;;;6213646;23;20732;-87
2023/01/08 07:14:39;;;;;;;8.57;7.77;;;7.80;99.90;;;;;;6214629;23;20370;-89
2023/01/08 07:17:05;;;;;;;8.80;7.70;;;7.70;99.90;;;;;;6211725;23;20381;-88
2023/01/08 07:19:31;;;;;;;8.43;7.63;;;7.70;99.90;;;;;;6212460;23;20468;-88
2023/01/08 07:21:57;;;;;;;8.60;7.80;;;7.70;99.90;;;;;;6213269;23;20358;-86
2023/01/08 07:24:23;;;;;;;10.23;8.45;;;7.70;99.90;;;;;;6212758;23;20436;-88
2023/01/08 07:26:49;;;;;;;9.40;8.27;;;7.70;99.90;;;;;;6213071;23;20397;-87
2023/01/08 07:29:14;;;;;;;9.50;8.60;;;7.70;99.90;;;;;;6212608;23;20429;-87
2023/01/08 07:31:40;;;;;;;9.20;8.40;;;7.60;99.90;;;;;;6213339;23;20365;-87
2023/01/08 07:34:06;;;;;;;9.88;8.98;;;7.70;99.90;;;;;;6213511;23;20354;-86
2023/01/08 07:36:31;;;;;;;10.30;9.27;;;7.70;99.90;;;;;;6213790;23;20350;-86
2023/01/08 07:38:57;;;;;;;10.85;9.75;;;7.70;99.90;;;;;;6211100;23;20492;-87
2023/01/08 07:41:23;;;;;;;11.67;9.10;;;7.60;99.90;;;;;;6208663;23;20369;-85
2023/01/08 07:43:49;;;;;;;11.13;10.00;;;7.60;99.90;;;;;;6211779;23;20396;-85
2023/01/08 07:46:15;;;;;;;11.32;10.20;;;7.60;99.90;;;;;;6211272;23;20353;-85
2023/01/08 07:48:41;;;;;;;11.98;10.13;;;7.60;99.90;;;;;;6212236;23;20370;-84
2023/01/08 07:51:08;;;;;;;11.32;10.23;;;7.60;99.90;;;;;;6210000;23;20514;-84
2023/01/08 07:53:55;;;;;;;11.73;10.52;;;7.50;99.90;;;;;;6211908;23;20361;-87
2023/01/08 07:56:21;;;;;;;11.27;10.18;;;7.50;99.90;;;;;;6214080;23;20440;-82
2023/01/08 07:58:46;;;;;;;11.90;10.70;;;7.60;99.90;;;;;;6212112;23;20342;-83
2023/01/08 08:01:13;;;;;;;11.87;10.67;;;7.50;99.90;;;;;;6211007;23;20412;-83
2023/01/08 08:03:39;;;;;;;11.32;10.23;;;7.50;99.90;;;;;;6213193;23;20370;-83
2023/01/08 08:06:05;;;;;;;11.45;10.35;;;7.50;99.90;;;;;;6212822;23;20350;-84
2023/01/08 08:08:31;;;;;;;12.20;11.00;;;7.60;99.90;;;;;;6211771;23;20407;-84
2023/01/08 08:10:57;;;;;;;13.03;11.47;;;7.60;99.90;;;;;;6211626;23;20810;-85
2023/01/08 08:13:22;;;;;;;12.20;10.93;;;7.60;99.90;;;;;;6212831;23;20358;-86
2023/01/08 08:15:48;;;;;;;12.63;11.32;;;7.60;99.90;;;;;;6210857;23;20824;-86
2023/01/08 08:18:14;;;;;;;12.77;11.57;;;7.60;99.90;;;;;;6211172;23;20346;-85
2023/01/08 08:20:48;;;;;;;12.85;11.55;;;7.60;99.90;;;;;;6213654;23;20385;-86
2023/01/08 08:23:20;;;;;;;12.30;11.00;;;7.60;99.90;;;;;;6217903;23;20350;-86
2023/01/08 08:25:45;;;;;;;12.93;11.57;;;7.60;99.90;;;;;;6219649;23;20421;-87
2023/01/08 08:28:11;;;;;;;12.20;11.07;;;7.50;99.90;;;;;;6218994;23;20377;-84
2023/01/08 08:30:38;;;;;;;13.25;11.85;;;7.60;99.90;;;;;;6222155;23;20373;-83
2023/01/08 08:33:05;;;;;;;13.63;12.23;;;7.60;99.90;;;;;;6219675;23;20469;-86
2023/01/08 08:35:32;;;;;;;13.85;12.45;;;7.60;99.90;;;;;;6213168;23;20898;-85
2023/01/08 08:37:59;;;;;;;13.57;12.20;;;7.50;99.90;;;;;;6219785;23;20385;-85
2023/01/08 08:40:25;;;;;;;14.18;12.77;;;7.50;99.90;;;;;;6220396;23;20369;-85
2023/01/08 08:42:59;;;;;;;14.10;12.70;;;7.60;99.90;;;;;;6221557;23;20342;-85
2023/01/08 08:45:25;;;;;;;13.68;12.38;;;7.60;99.90;;;;;;6223770;23;20433;-84
2023/01/08 08:47:51;;;;;;;13.77;12.38;;;7.70;99.90;;;;;;6220730;23;20386;-84
2023/01/08 08:50:18;;;;;;;13.32;12.02;;;7.60;99.90;;;;;;6223084;23;20658;-84
2023/01/08 08:52:45;;;;;;;13.00;11.70;;;7.80;99.90;;;;;;6220354;23;20346;-84
2023/01/08 08:55:17;;;;;;;12.57;11.38;;;7.80;99.90;;;;;;6220611;23;20347;-84
2023/01/08 08:57:44;;;;;;;13.88;12.48;;;7.80;99.90;;;;;;6219866;23;20374;-84
2023/01/08 09:00:11;;;;;;;14.07;12.57;;;7.70;99.90;;;;;;6222348;23;20356;-83
2023/01/08 09:02:37;;;;;;;14.30;12.90;;;7.80;99.90;;;;;;6220176;23;20354;-84
2023/01/08 09:05:03;;;;;;;13.77;12.38;;;7.70;99.90;;;;;;6220614;23;20426;-83
2023/01/08 09:07:29;;;;;;;13.57;12.27;;;7.70;99.90;;;;;;6220979;23;20401;-84
2023/01/08 09:09:54;;;;;;;13.38;12.00;;;7.80;99.90;;;;;;6221427;23;20338;-85
2023/01/08 09:12:20;;;;;;;13.40;12.10;;;7.70;99.90;;;;;;6222045;23;20338;-83
2023/01/08 09:14:48;;;;;;;13.53;12.20;;;7.70;99.90;;;;;;6222675;23;20351;-85
2023/01/08 09:17:14;;;;;;;13.70;12.40;;;7.70;99.90;;;;;;6220021;23;20346;-84
2023/01/08 09:19:40;;;;;;;14.20;12.80;;;7.80;99.90;;;;;;6221202;23;20377;-83
2023/01/08 09:22:06;;;;;;;13.17;11.77;;;7.80;99.90;;;;;;6220829;23;20349;-83
2023/01/08 09:24:32;;;;;;;13.57;12.05;;;7.90;99.90;;;;;;6221255;23;20388;-84
2023/01/08 09:26:58;;;;;;;13.38;11.88;;;7.90;99.90;;;;;;6219316;23;20378;-83
2023/01/08 09:29:24;;;;;;;13.25;11.95;;;7.90;99.90;;;;;;6220854;23;20346;-84
2023/01/08 09:31:49;;;;;;;12.75;11.45;;;7.80;99.90;;;;;;6216985;23;20445;-86
2023/01/08 09:34:15;;;;;;;13.05;11.85;;;7.90;99.90;;;;;;6216215;23;20786;-84
2023/01/08 09:36:41;;;;;;;13.73;12.25;;;7.90;99.90;;;;;;6214437;23;20346;-85
2023/01/08 09:39:07;;;;;;;13.83;11.83;;;7.90;99.90;;;;;;6215417;23;20338;-85
2023/01/08 09:41:35;;;;;;;13.47;12.17;;;7.90;99.90;;;;;;6213703;23;20346;-85
2023/01/08 09:44:05;;;;;;;14.63;13.15;;;7.80;99.90;;;;;;6215550;23;21067;-85
2023/01/08 09:46:31;;;;;;;13.30;12.00;;;7.80;99.90;;;;;;6216104;23;20371;-85
2023/01/08 09:49:01;;;;;;;14.57;12.00;;;7.90;99.90;;;;;;6216187;23;20357;-84
2023/01/08 09:51:35;;;;;;;12.50;11.20;;;7.90;99.90;;;;;;6216429;23;20419;-85
2023/01/08 09:54:03;;;;;;;12.85;11.55;;;8.00;99.90;;;;;;6214774;23;20683;-86
2023/01/08 09:56:29;;;;;;;12.70;11.40;;;8.00;99.90;;;;;;6213867;23;20350;-86
2023/01/08 09:59:01;;;;;;;13.07;11.67;;;8.20;99.90;;;;;;6212398;23;20769;-87
2023/01/08 10:01:37;;;;;;;13.67;12.10;;;8.00;99.90;;;;;;6209738;23;20507;-88
2023/01/08 10:04:04;;;;;;;13.93;12.02;;;8.00;99.90;;;;;;6213271;23;20428;-86
2023/01/08 10:06:30;;;;;;;13.80;12.40;;;8.00;99.90;;;;;;6216007;23;20358;-87
2023/01/08 10:08:57;;;;;;;12.85;11.52;;;8.10;99.90;;;;;;6212692;23;20380;-86
2023/01/08 10:11:27;;;;;;;12.40;11.18;;;8.00;99.90;;;;;;6213955;23;20377;-88
2023/01/08 10:13:54;;;;;;;12.07;10.87;;;8.10;99.90;;;;;;6208973;23;20406;-86
2023/01/08 10:16:32;;;;;;;13.57;11.70;;;8.10;99.90;;;;;;6210422;23;20366;-86
2023/01/08 10:18:59;;;;;;;12.18;10.88;;;8.10;99.90;;;;;;6210730;23;20355;-85
2023/01/08 10:21:45;;;;;;;11.07;9.98;;;8.10;99.90;;;;;;6211527;23;20350;-87
2023/01/08 10:24:11;;;;;;;12.35;11.05;;;8.10;99.90;;;;;;6210365;23;20346;-87
2023/01/08 10:26:37;;;;;;;11.82;10.63;;;8.20;99.90;;;;;;6213358;23;20591;-88
2023/01/08 10:29:16;;;;;;;11.90;10.70;;;8.30;99.90;;;;;;6214745;23;20350;-91
2023/01/08 10:31:46;;;;;;;12.27;10.90;;;8.20;99.90;;;;;;6215896;23;20361;-86
2023/01/08 10:34:25;;;;;;;11.43;10.25;;;8.40;99.90;;;;;;6213429;23;20800;-87
2023/01/08 10:36:53;;;;;;;14.05;10.82;;;8.50;99.90;;;;;;6212711;23;20352;-86
2023/01/08 10:39:26;;;;;;;12.63;10.63;;;8.50;99.90;;;;;;6214374;23;20373;-87
2023/01/08 10:41:56;;;;;;;10.93;9.82;;;8.70;99.90;;;;;;6216710;23;20823;-88
2023/01/08 10:44:24;;;;;;;10.52;9.48;;;8.80;99.90;;;;;;6217591;23;20338;-86
2023/01/08 10:46:53;;;;;;;10.75;9.60;;;8.80;99.90;;;;;;6214415;23;20412;-88
2023/01/08 10:49:30;;;;;;;10.45;9.40;;;8.80;99.90;;;;;;6215135;23;20365;-86
2023/01/08 10:51:57;;;;;;;11.25;10.15;;;8.80;99.90;;;;;;6217347;23;20342;-87
2023/01/08 10:54:40;;;;;;;11.05;9.52;;;8.70;99.90;;;;;;6214116;23;20441;-87
2023/01/08 10:57:25;;;;;;;10.18;9.18;;;8.70;99.90;;;;;;6212614;23;20385;-87
2023/01/08 10:59:52;;;;;;;10.38;9.38;;;8.70;99.90;;;;;;6215320;23;20338;-86
2023/01/08 11:02:39;;;;;;;10.07;9.07;;;8.80;99.90;;;;;;6214530;23;20448;-87
2023/01/08 11:05:07;;;;;;;10.18;9.18;;;8.70;99.90;;;;;;6214564;23;20374;-86
2023/01/08 11:07:36;;;;;;;10.88;8.55;;;8.80;99.90;;;;;;6214367;23;20374;-86
2023/01/08 11:10:03;;;;;;;9.25;8.35;;;9.00;99.90;;;;;;6213427;23;21246;-87
2023/01/08 11:12:38;;;;;;;10.70;9.60;;;9.10;99.90;;;;;;6212694;23;20353;-86
2023/01/08 11:15:50;;;;;;;10.40;8.90;;;9.10;99.90;;;;;;6215955;23;20441;-85
2023/01/08 11:18:24;;;;;;;10.18;8.65;;;9.30;99.90;;;;;;6212152;23;20353;-86
2023/01/08 11:20:53;;;;;;;9.93;8.77;;;9.40;99.90;;;;;;6218516;23;20401;-85
2023/01/08 11:23:23;;;;;;;8.50;7.60;;;9.50;99.90;;;;;;6217844;23;20417;-86
2023/01/08 11:25:57;;;;;;;8.55;7.63;;;9.50;99.90;;;;;;6219053;23;20808;-86
2023/01/08 11:28:47;;;;;;;9.23;8.25;;;9.60;99.90;;;;;;6215753;23;20374;-86
2023/01/08 11:31:21;;;;;;;8.70;7.75;;;9.70;99.90;;;;;;6220206;23;20415;-85
2023/01/08 11:33:55;;;;;;;8.80;7.90;;;9.60;99.90;;;;;;6223303;23;20346;-85
2023/01/08 11:36:32;;;;;;;8.93;7.40;;;9.50;99.90;;;;;;6220887;23;20370;-86
2023/01/08 11:38:59;;;;;;;10.27;7.95;;;9.60;99.90;;;;;;6220685;23;20497;-86
2023/01/08 11:42:00;;;;;;;8.88;7.72;;;9.60;99.90;;;;;;6221398;23;20350;-86
2023/01/08 11:44:35;;;;;;;9.15;8.13;;;9.60;99.90;;;;;;6219301;23;20370;-85
2023/01/08 11:47:42;;;;;;;10.33;8.97;;;9.60;99.90;;;;;;6219114;23;20369;-85
2023/01/08 11:50:13;;;;;;;9.45;7.95;;;9.60;99.90;;;;;;6221915;23;20369;-84
2023/01/08 11:53:06;;;;;;;9.13;7.77;;;9.50;99.90;;;;;;6217862;23;20345;-85
2023/01/08 11:55:44;;;;;;;8.65;7.63;;;9.60;99.90;;;;;;6217961;23;20377;-85
2023/01/08 11:58:35;;;;;;;8.55;7.70;;;9.60;99.90;;;;;;6219851;23;20361;-87
2023/01/08 12:01:19;;;;;;;8.77;7.40;;;9.50;99.90;;;;;;6216047;23;20352;-85
2023/01/08 12:04:21;;;;;;;8.57;7.75;;;9.60;99.90;;;;;;6217814;23;20382;-86
2023/01/08 12:07:03;;;;;;;9.38;8.38;;;9.70;99.90;;;;;;6215153;23;20354;-85
2023/01/08 12:09:47;;;;;;;9.57;8.60;;;9.50;99.90;;;;;;6216440;23;20353;-86
2023/01/08 12:12:13;;;;;;;8.85;7.95;;;9.60;99.90;;;;;;6215159;23;20942;-87
2023/01/08 12:14:56;;;;;;;9.50;8.23;;;9.70;99.90;;;;;;6214793;23;20405;-85
2023/01/08 12:17:41;;;;;;;8.13;7.30;;;9.70;99.90;;;;;;6214175;23;20342;-86
2023/01/08 12:20:26;;;;;;;8.40;7.60;;;9.80;99.90;;;;;;6215061;23;20346;-87
2023/01/08 12:23:10;;;;;;;8.75;7.32;;;9.90;99.90;;;;;;6212823;23;20368;-87
2023/01/08 12:28:59;;;;;;;7.38;6.57;;;9.90;99.90;;;;;;6212262;23;20469;-87
2023/01/08 12:31:49;;;;;;;7.72;6.93;;;9.90;99.90;;;;;;6212674;23;20354;-88
2023/01/08 12:34:48;;;;;;;7.53;6.57;;;9.90;99.90;;;;;;6212273;23;20728;-86
2023/01/08 12:37:24;;;;;;;7.72;6.97;;;9.80;99.90;;;;;;6190604;23;20357;-85
2023/01/08 12:39:55;;;;;;;8.37;7.17;;;9.80;99.90;;;;;;6221730;23;20352;-86
2023/01/08 12:42:29;;;;;;;8.00;6.53;;;9.80;99.90;;;;;;6216932;23;20392;-86
2023/01/08 12:45:03;;;;;;;7.97;7.00;;;9.80;99.90;;;;;;6214925;23;20357;-85
2023/01/08 12:47:39;;;;;;;7.82;7.03;;;9.80;99.90;;;;;;6215283;23;20366;-85
2023/01/08 12:50:45;;;;;;;8.63;7.38;;;9.70;99.90;;;;;;6218909;23;20426;-86
2023/01/08 12:53:37;;;;;;;7.57;6.88;;;9.80;99.90;;;;;;6213958;23;20413;-86
2023/01/08 12:56:35;;;;;;;8.63;7.63;;;9.70;99.90;;;;;;6218506;23;20378;-86
2023/01/08 12:59:38;;;;;;;8.35;7.55;;;9.60;99.90;;;;;;6218210;23;20362;-88
2023/01/08 13:02:14;;;;;;;8.60;7.03;;;9.60;99.90;;;;;;6219235;23;20350;-87
2023/01/08 13:04:45;;;;;;;7.50;6.77;;;9.60;99.90;;;;;;6218742;23;20393;-87
2023/01/08 13:07:29;;;;;;;8.70;7.80;;;9.60;99.90;;;;;;6218744;23;20366;-87
2023/01/08 13:10:01;;;;;;;8.30;7.50;;;9.60;99.90;;;;;;6216813;23;20359;-87